sensor_id;sensor_type;location;lat;lon;timestamp;temperature;humidity
20773;DHT22;10546;50.674;4.616;2024-03-17T00:01:02;8.80;99.90
20773;DHT22;10546;50.674;4.616;2024-03-17T00:03:28;8.80;99.90
20773;DHT22;10546;50.674;4.616;2024-03-17T00:05:58;8.90;99.90
20773;DHT22;10546;50.674;4.616;2024-03-17T00:08:24;8.80;99.90
20773;DHT22;10546;50.674;4.616;2024-03-17T00:10:51;8.80;99.90
20773;DHT22;10546;50.674;4.616;2024-03-17T00:13:17;8.80;99.90
20773;DHT22;10546;50.674;4.616;2024-03-17T00:15:43;8.70;99.90
20773;DHT22;10546;50.674;4.616;2024-03-17T00:18:09;8.80;99.90
20773;DHT22;10546;50.674;4.616;2024-03-17T07:47:50;8.80;99.90
20773;DHT22;10546;50.674;4.616;2024-03-17T07:50:16;8.70;99.90
20773;DHT22;10546;50.674;4.616;2024-03-17T07:52:43;8.80;99.90
20773;DHT22;10546;50.674;4.616;2024-03-17T07:55:08;9.00;99.90
20773;DHT22;10546;50.674;4.616;2024-03-17T07:57:34;9.20;99.90
20773;DHT22;10546;50.674;4.616;2024-03-17T08:00:00;9.50;99.90
20773;DHT22;10546;50.674;4.616;2024-03-17T08:02:26;9.50;99.90
20773;DHT22;10546;50.674;4.616;2024-03-17T08:04:51;9.70;99.90
20773;DHT22;10546;50.674;4.616;2024-03-17T08:07:17;10.10;99.90
20773;DHT22;10546;50.674;4.616;2024-03-17T08:09:43;10.20;99.90
20773;DHT22;10546;50.674;4.616;2024-03-17T08:12:08;10.40;99.90
20773;DHT22;10546;50.674;4.616;2024-03-17T08:14:34;10.20;99.90
20773;DHT22;10546;50.674;4.616;2024-03-17T08:17:00;10.00;99.90
20773;DHT22;10546;50.674;4.616;2024-03-17T08:19:25;10.20;99.90
20773;DHT22;10546;50.674;4.616;2024-03-17T08:21:51;10.50;99.90
20773;DHT22;10546;50.674;4.616;2024-03-17T08:24:18;10.30;99.90
20773;DHT22;10546;50.674;4.616;2024-03-17T08:26:43;10.20;99.90
20773;DHT22;10546;50.674;4.616;2024-03-17T08:29:11;10.20;99.90
20773;DHT22;10546;50.674;4.616;2024-03-17T08:31:37;10.20;99.90
20773;DHT22;10546;50.674;4.616;2024-03-17T08:34:03;10.30;99.90
20773;DHT22;10546;50.674;4.616;2024-03-17T08:36:28;10.30;99.90
20773;DHT22;10546;50.674;4.616;2024-03-17T08:38:54;10.40;99.90
20773;DHT22;10546;50.674;4.616;2024-03-17T08:41:20;10.30;99.90
20773;DHT22;10546;50.674;4.616;2024-03-17T08:43:46;10.20;99.90
20773;DHT22;10546;50.674;4.616;2024-03-17T08:46:12;10.50;99.90
20773;DHT22;10546;50.674;4.616;2024-03-17T08:48:40;10.40;99.90
20773;DHT22;10546;50.674;4.616;2024-03-17T08:51:08;10.60;99.90
20773;DHT22;10546;50.674;4.616;2024-03-17T08:53:35;10.80;99.90
20773;DHT22;10546;50.674;4.616;2024-03-17T08:56:03;11.00;99.90
20773;DHT22;10546;50.674;4.616;2024-03-17T08:58:29;11.10;99.90
20773;DHT22;10546;50.674;4.616;2024-03-17T09:00:54;11.20;99.90
20773;DHT22;10546;50.674;4.616;2024-03-17T09:03:21;11.30;99.90
20773;DHT22;10546;50.674;4.616;2024-03-17T09:05:48;11.40;99.90
20773;DHT22;10546;50.674;4.616;2024-03-17T09:08:24;11.40;99.90
20773;DHT22;10546;50.674;4.616;2024-03-17T09:10:53;11.40;99.90
20773;DHT22;10546;50.674;4.616;2024-03-17T09:13:21;11.60;99.90
20773;DHT22;10546;50.674;4.616;2024-03-17T09:15:55;11.70;99.90
20773;DHT22;10546;50.674;4.616;2024-03-17T09:18:31;11.70;99.90
20773;DHT22;10546;50.674;4.616;2024-03-17T09:21:02;11.80;99.90
20773;DHT22;10546;50.674;4.616;2024-03-17T09:23:28;11.90;99.90
20773;DHT22;10546;50.674;4.616;2024-03-17T09:26:01;12.10;99.90
20773;DHT22;10546;50.674;4.616;2024-03-17T09:28:29;12.20;99.90
20773;DHT22;10546;50.674;4.616;2024-03-17T09:30:55;12.30;99.90
20773;DHT22;10546;50.674;4.616;2024-03-17T09:33:22;12.50;99.90
20773;DHT22;10546;50.674;4.616;2024-03-17T09:35:58;12.70;99.90
20773;DHT22;10546;50.674;4.616;2024-03-17T09:38:26;12.80;99.90
20773;DHT22;10546;50.674;4.616;2024-03-17T09:40:52;12.90;99.90
20773;DHT22;10546;50.674;4.616;2024-03-17T09:43:22;12.90;99.90
20773;DHT22;10546;50.674;4.616;2024-03-17T09:45:51;13.10;99.90
20773;DHT22;10546;50.674;4.616;2024-03-17T09:48:24;13.20;99.90
20773;DHT22;10546;50.674;4.616;2024-03-17T09:51:00;13.50;99.90
20773;DHT22;10546;50.674;4.616;2024-03-17T09:53:28;13.30;99.90
20773;DHT22;10546;50.674;4.616;2024-03-17T09:55:59;13.20;99.90
20773;DHT22;10546;50.674;4.616;2024-03-17T09:58:26;13.30;99.90
20773;DHT22;10546;50.674;4.616;2024-03-17T10:00:51;13.20;99.90
20773;DHT22;10546;50.674;4.616;2024-03-17T10:03:43;13.20;99.90
20773;DHT22;10546;50.674;4.616;2024-03-17T10:06:15;13.60;99.90
20773;DHT22;10546;50.674;4.616;2024-03-17T10:08:46;13.90;99.90
20773;DHT22;10546;50.674;4.616;2024-03-17T10:11:13;14.40;99.90
20773;DHT22;10546;50.674;4.616;2024-03-17T10:13:41;14.50;99.90
20773;DHT22;10546;50.674;4.616;2024-03-17T10:16:27;14.40;99.90
20773;DHT22;10546;50.674;4.616;2024-03-17T10:19:30;14.20;99.90
20773;DHT22;10546;50.674;4.616;2024-03-17T10:21:59;14.00;99.90
20773;DHT22;10546;50.674;4.616;2024-03-17T10:24:27;13.90;99.90
20773;DHT22;10546;50.674;4.616;2024-03-17T10:27:01;13.90;99.90
20773;DHT22;10546;50.674;4.616;2024-03-17T10:29:29;13.80;99.90
20773;DHT22;10546;50.674;4.616;2024-03-17T10:32:18;13.70;99.90
20773;DHT22;10546;50.674;4.616;2024-03-17T10:34:45;13.80;99.90
20773;DHT22;10546;50.674;4.616;2024-03-17T10:37:13;13.70;99.90
20773;DHT22;10546;50.674;4.616;2024-03-17T10:39:40;13.70;99.90
20773;DHT22;10546;50.674;4.616;2024-03-17T10:42:08;13.50;99.90
20773;DHT22;10546;50.674;4.616;2024-03-17T10:44:41;13.50;99.90
20773;DHT22;10546;50.674;4.616;2024-03-17T10:47:24;13.60;99.90
20773;DHT22;10546;50.674;4.616;2024-03-17T10:49:51;13.70;99.90
20773;DHT22;10546;50.674;4.616;2024-03-17T10:52:18;13.40;99.90
20773;DHT22;10546;50.674;4.616;2024-03-17T10:54:54;13.30;99.90
20773;DHT22;10546;50.674;4.616;2024-03-17T10:57:34;13.30;99.90
20773;DHT22;10546;50.674;4.616;2024-03-17T11:00:05;13.20;99.90
20773;DHT22;10546;50.674;4.616;2024-03-17T11:02:33;13.30;99.90
20773;DHT22;10546;50.674;4.616;2024-03-17T11:07:46;13.20;99.90
20773;DHT22;10546;50.674;4.616;2024-03-17T11:10:27;13.20;99.90
20773;DHT22;10546;50.674;4.616;2024-03-17T11:12:58;13.30;99.90
20773;DHT22;10546;50.674;4.616;2024-03-17T11:18:28;13.40;99.90
20773;DHT22;10546;50.674;4.616;2024-03-17T11:20:43;13.60;99.90
20773;DHT22;10546;50.674;4.616;2024-03-17T11:23:28;13.80;99.90
20773;DHT22;10546;50.674;4.616;2024-03-17T11:25:54;13.90;99.90
20773;DHT22;10546;50.674;4.616;2024-03-17T11:34:05;14.00;99.90
20773;DHT22;10546;50.674;4.616;2024-03-17T11:36:40;14.30;99.90
20773;DHT22;10546;50.674;4.616;2024-03-17T11:39:10;14.50;99.90
20773;DHT22;10546;50.674;4.616;2024-03-17T11:41:53;14.60;99.90
20773;DHT22;10546;50.674;4.616;2024-03-17T11:52:00;15.20;99.90
20773;DHT22;10546;50.674;4.616;2024-03-17T11:54:30;15.50;99.90
20773;DHT22;10546;50.674;4.616;2024-03-17T11:57:01;15.80;99.90
20773;DHT22;10546;50.674;4.616;2024-03-17T11:59:27;16.20;99.90
20773;DHT22;10546;50.674;4.616;2024-03-17T12:01:53;16.20;99.90
20773;DHT22;10546;50.674;4.616;2024-03-17T12:04:20;16.00;99.90
20773;DHT22;10546;50.674;4.616;2024-03-17T12:06:56;16.20;99.90
20773;DHT22;10546;50.674;4.616;2024-03-17T12:14:25;16.30;99.90
20773;DHT22;10546;50.674;4.616;2024-03-17T12:16:53;16.30;99.90
20773;DHT22;10546;50.674;4.616;2024-03-17T12:19:20;16.30;99.90
20773;DHT22;10546;50.674;4.616;2024-03-17T12:21:53;16.20;99.90
20773;DHT22;10546;50.674;4.616;2024-03-17T12:24:24;16.20;99.90
20773;DHT22;10546;50.674;4.616;2024-03-17T12:26:52;16.50;99.90
20773;DHT22;10546;50.674;4.616;2024-03-17T12:29:35;16.40;99.90
20773;DHT22;10546;50.674;4.616;2024-03-17T12:32:20;16.40;99.90
20773;DHT22;10546;50.674;4.616;2024-03-17T12:34:54;16.30;99.90
20773;DHT22;10546;50.674;4.616;2024-03-17T12:37:27;16.30;99.90
20773;DHT22;10546;50.674;4.616;2024-03-17T12:39:59;16.30;99.90
20773;DHT22;10546;50.674;4.616;2024-03-17T12:42:26;16.50;99.90
20773;DHT22;10546;50.674;4.616;2024-03-17T12:44:53;16.10;99.90
20773;DHT22;10546;50.674;4.616;2024-03-17T12:47:23;16.30;99.90
20773;DHT22;10546;50.674;4.616;2024-03-17T12:49:51;16.50;99.90
20773;DHT22;10546;50.674;4.616;2024-03-17T12:52:25;16.70;99.90
20773;DHT22;10546;50.674;4.616;2024-03-17T12:55:05;16.80;99.90
20773;DHT22;10546;50.674;4.616;2024-03-17T12:57:53;16.60;99.90
20773;DHT22;10546;50.674;4.616;2024-03-17T13:01:01;16.40;99.90
20773;DHT22;10546;50.674;4.616;2024-03-17T13:03:30;16.40;99.90
20773;DHT22;10546;50.674;4.616;2024-03-17T13:05:57;16.40;99.90
20773;DHT22;10546;50.674;4.616;2024-03-17T13:08:23;16.20;99.90
20773;DHT22;10546;50.674;4.616;2024-03-17T13:10:48;16.20;99.90
20773;DHT22;10546;50.674;4.616;2024-03-17T13:13:15;16.20;99.90
20773;DHT22;10546;50.674;4.616;2024-03-17T13:15:42;16.00;99.90
20773;DHT22;10546;50.674;4.616;2024-03-17T13:18:08;16.10;99.90
20773;DHT22;10546;50.674;4.616;2024-03-17T13:20:34;16.10;99.90
20773;DHT22;10546;50.674;4.616;2024-03-17T13:23:01;16.30;99.90
20773;DHT22;10546;50.674;4.616;2024-03-17T13:25:30;16.10;99.90
20773;DHT22;10546;50.674;4.616;2024-03-17T13:28:04;15.90;99.90
20773;DHT22;10546;50.674;4.616;2024-03-17T13:30:30;15.90;99.90
20773;DHT22;10546;50.674;4.616;2024-03-17T13:32:57;16.00;99.90
20773;DHT22;10546;50.674;4.616;2024-03-17T13:35:29;16.10;99.90
20773;DHT22;10546;50.674;4.616;2024-03-17T13:37:56;16.00;99.90
20773;DHT22;10546;50.674;4.616;2024-03-17T13:40:26;16.00;99.90
20773;DHT22;10546;50.674;4.616;2024-03-17T13:42:53;15.90;99.90
20773;DHT22;10546;50.674;4.616;2024-03-17T13:45:21;16.10;99.90
20773;DHT22;10546;50.674;4.616;2024-03-17T13:47:51;16.30;99.90
20773;DHT22;10546;50.674;4.616;2024-03-17T13:50:17;16.30;99.90
20773;DHT22;10546;50.674;4.616;2024-03-17T13:52:43;16.20;99.90
20773;DHT22;10546;50.674;4.616;2024-03-17T13:55:15;16.10;99.90
20773;DHT22;10546;50.674;4.616;2024-03-17T13:57:47;16.10;99.90
20773;DHT22;10546;50.674;4.616;2024-03-17T14:00:14;16.00;99.90
20773;DHT22;10546;50.674;4.616;2024-03-17T14:02:49;16.00;99.90
20773;DHT22;10546;50.674;4.616;2024-03-17T14:05:19;16.00;99.90
20773;DHT22;10546;50.674;4.616;2024-03-17T14:07:46;15.80;99.90
20773;DHT22;10546;50.674;4.616;2024-03-17T14:10:16;15.80;99.90
20773;DHT22;10546;50.674;4.616;2024-03-17T14:12:42;15.80;99.90
20773;DHT22;10546;50.674;4.616;2024-03-17T14:15:10;15.70;99.90
20773;DHT22;10546;50.674;4.616;2024-03-17T14:17:37;15.60;99.90
20773;DHT22;10546;50.674;4.616;2024-03-17T14:20:03;15.50;99.90
20773;DHT22;10546;50.674;4.616;2024-03-17T14:22:31;15.50;99.90
20773;DHT22;10546;50.674;4.616;2024-03-17T14:24:57;15.50;99.90
20773;DHT22;10546;50.674;4.616;2024-03-17T14:27:23;15.40;99.90
20773;DHT22;10546;50.674;4.616;2024-03-17T14:29:49;15.50;99.90
20773;DHT22;10546;50.674;4.616;2024-03-17T14:32:15;15.50;99.90
20773;DHT22;10546;50.674;4.616;2024-03-17T14:34:41;15.60;99.90
20773;DHT22;10546;50.674;4.616;2024-03-17T14:37:06;15.60;99.90
20773;DHT22;10546;50.674;4.616;2024-03-17T14:39:32;15.70;99.90
20773;DHT22;10546;50.674;4.616;2024-03-17T14:41:58;15.60;99.90
20773;DHT22;10546;50.674;4.616;2024-03-17T14:44:24;15.40;99.90
20773;DHT22;10546;50.674;4.616;2024-03-17T14:46:50;15.30;99.90
20773;DHT22;10546;50.674;4.616;2024-03-17T14:49:21;15.10;99.90
20773;DHT22;10546;50.674;4.616;2024-03-17T14:51:46;14.90;99.90
20773;DHT22;10546;50.674;4.616;2024-03-17T14:54:13;14.90;99.90
20773;DHT22;10546;50.674;4.616;2024-03-17T14:56:38;14.80;99.90
20773;DHT22;10546;50.674;4.616;2024-03-17T14:59:05;14.70;99.90
20773;DHT22;10546;50.674;4.616;2024-03-17T15:01:31;14.70;99.90
20773;DHT22;10546;50.674;4.616;2024-03-17T15:03:57;14.80;99.90
20773;DHT22;10546;50.674;4.616;2024-03-17T15:06:23;14.80;99.90
20773;DHT22;10546;50.674;4.616;2024-03-17T15:08:50;14.90;99.90
20773;DHT22;10546;50.674;4.616;2024-03-17T15:11:16;15.00;99.90
20773;DHT22;10546;50.674;4.616;2024-03-17T15:13:43;15.00;99.90
20773;DHT22;10546;50.674;4.616;2024-03-17T15:16:09;14.90;99.90
20773;DHT22;10546;50.674;4.616;2024-03-17T15:18:35;14.80;99.90
20773;DHT22;10546;50.674;4.616;2024-03-17T15:21:01;14.80;99.90
20773;DHT22;10546;50.674;4.616;2024-03-17T15:23:27;14.80;99.90
20773;DHT22;10546;50.674;4.616;2024-03-17T15:26:03;14.80;99.90
20773;DHT22;10546;50.674;4.616;2024-03-17T15:28:39;14.80;99.90
20773;DHT22;10546;50.674;4.616;2024-03-17T15:31:08;14.60;99.90
20773;DHT22;10546;50.674;4.616;2024-03-17T15:33:35;14.60;99.90
20773;DHT22;10546;50.674;4.616;2024-03-17T15:36:03;14.40;99.90
20773;DHT22;10546;50.674;4.616;2024-03-17T15:38:33;14.40;99.90
20773;DHT22;10546;50.674;4.616;2024-03-17T15:41:07;14.30;99.90
20773;DHT22;10546;50.674;4.616;2024-03-17T15:43:33;14.20;99.90
20773;DHT22;10546;50.674;4.616;2024-03-17T15:46:00;14.30;99.90
20773;DHT22;10546;50.674;4.616;2024-03-17T15:48:26;14.40;99.90
20773;DHT22;10546;50.674;4.616;2024-03-17T15:50:58;14.30;99.90
20773;DHT22;10546;50.674;4.616;2024-03-17T15:53:27;14.20;99.90
20773;DHT22;10546;50.674;4.616;2024-03-17T15:55:57;14.10;99.90
20773;DHT22;10546;50.674;4.616;2024-03-17T15:58:24;14.00;99.90
20773;DHT22;10546;50.674;4.616;2024-03-17T16:00:50;14.00;99.90
20773;DHT22;10546;50.674;4.616;2024-03-17T16:03:16;14.00;99.90
20773;DHT22;10546;50.674;4.616;2024-03-17T16:05:46;13.90;99.90
20773;DHT22;10546;50.674;4.616;2024-03-17T16:08:13;13.90;99.90
20773;DHT22;10546;50.674;4.616;2024-03-17T16:10:40;14.00;99.90
20773;DHT22;10546;50.674;4.616;2024-03-17T16:13:08;14.00;99.90
20773;DHT22;10546;50.674;4.616;2024-03-17T16:15:33;14.10;99.90
20773;DHT22;10546;50.674;4.616;2024-03-17T16:17:59;14.10;99.90
20773;DHT22;10546;50.674;4.616;2024-03-17T16:23:17;14.10;99.90
20773;DHT22;10546;50.674;4.616;2024-03-17T16:25:44;13.90;99.90
20773;DHT22;10546;50.674;4.616;2024-03-17T16:28:09;13.90;99.90
20773;DHT22;10546;50.674;4.616;2024-03-17T16:30:37;13.90;99.90
20773;DHT22;10546;50.674;4.616;2024-03-17T16:33:04;13.60;99.90
20773;DHT22;10546;50.674;4.616;2024-03-17T16:35:30;13.50;99.90
20773;DHT22;10546;50.674;4.616;2024-03-17T16:37:56;13.20;99.90
20773;DHT22;10546;50.674;4.616;2024-03-17T16:40:22;13.10;99.90
20773;DHT22;10546;50.674;4.616;2024-03-17T16:42:47;13.00;99.90
20773;DHT22;10546;50.674;4.616;2024-03-17T16:45:13;12.90;99.90
20773;DHT22;10546;50.674;4.616;2024-03-17T16:47:41;12.80;99.90
20773;DHT22;10546;50.674;4.616;2024-03-17T16:50:07;12.70;99.90
20773;DHT22;10546;50.674;4.616;2024-03-17T16:52:38;12.70;99.90
20773;DHT22;10546;50.674;4.616;2024-03-17T16:55:05;12.50;99.90
20773;DHT22;10546;50.674;4.616;2024-03-17T16:57:32;12.40;99.90
20773;DHT22;10546;50.674;4.616;2024-03-17T16:59:58;12.30;99.90
20773;DHT22;10546;50.674;4.616;2024-03-17T17:02:23;12.30;99.90
20773;DHT22;10546;50.674;4.616;2024-03-17T17:04:49;12.40;99.90
20773;DHT22;10546;50.674;4.616;2024-03-17T17:07:15;12.30;99.90
20773;DHT22;10546;50.674;4.616;2024-03-17T17:09:41;12.30;99.90
20773;DHT22;10546;50.674;4.616;2024-03-17T17:12:10;12.40;99.90
20773;DHT22;10546;50.674;4.616;2024-03-17T17:14:40;12.50;99.90
20773;DHT22;10546;50.674;4.616;2024-03-17T17:17:12;12.40;99.90
20773;DHT22;10546;50.674;4.616;2024-03-17T17:19:39;12.40;99.90
20773;DHT22;10546;50.674;4.616;2024-03-17T17:22:14;12.30;99.90
20773;DHT22;10546;50.674;4.616;2024-03-17T17:24:41;12.40;99.90
20773;DHT22;10546;50.674;4.616;2024-03-17T17:27:07;12.40;99.90
20773;DHT22;10546;50.674;4.616;2024-03-17T17:29:37;12.40;99.90
20773;DHT22;10546;50.674;4.616;2024-03-17T17:32:04;12.30;99.90
20773;DHT22;10546;50.674;4.616;2024-03-17T17:34:35;12.40;99.90
20773;DHT22;10546;50.674;4.616;2024-03-17T17:37:02;12.50;99.90
20773;DHT22;10546;50.674;4.616;2024-03-17T17:39:28;12.50;99.90
20773;DHT22;10546;50.674;4.616;2024-03-17T17:41:54;12.50;99.90
20773;DHT22;10546;50.674;4.616;2024-03-17T17:44:23;12.40;99.90
20773;DHT22;10546;50.674;4.616;2024-03-17T17:46:48;12.40;99.90
20773;DHT22;10546;50.674;4.616;2024-03-17T17:49:14;12.40;99.90
20773;DHT22;10546;50.674;4.616;2024-03-17T17:51:40;12.30;99.90
20773;DHT22;10546;50.674;4.616;2024-03-17T17:54:07;12.20;99.90
20773;DHT22;10546;50.674;4.616;2024-03-17T17:56:33;12.10;99.90
20773;DHT22;10546;50.674;4.616;2024-03-17T17:58:59;12.10;99.90
20773;DHT22;10546;50.674;4.616;2024-03-17T18:01:24;12.10;99.90
20773;DHT22;10546;50.674;4.616;2024-03-17T18:03:50;11.80;99.90
20773;DHT22;10546;50.674;4.616;2024-03-17T18:06:18;11.70;99.90
20773;DHT22;10546;50.674;4.616;2024-03-17T18:08:44;11.80;99.90
20773;DHT22;10546;50.674;4.616;2024-03-17T18:11:18;11.80;99.90
20773;DHT22;10546;50.674;4.616;2024-03-17T18:13:45;11.80;99.90
20773;DHT22;10546;50.674;4.616;2024-03-17T18:16:14;11.80;99.90
20773;DHT22;10546;50.674;4.616;2024-03-17T18:18:40;11.80;99.90
20773;DHT22;10546;50.674;4.616;2024-03-17T18:21:11;11.80;99.90
20773;DHT22;10546;50.674;4.616;2024-03-17T18:23:41;11.80;99.90
20773;DHT22;10546;50.674;4.616;2024-03-17T18:26:11;11.90;99.90
20773;DHT22;10546;50.674;4.616;2024-03-17T18:28:40;11.90;99.90
20773;DHT22;10546;50.674;4.616;2024-03-17T18:31:07;12.00;99.90
20773;DHT22;10546;50.674;4.616;2024-03-17T18:33:35;12.00;99.90
20773;DHT22;10546;50.674;4.616;2024-03-17T18:36:02;11.70;99.90
20773;DHT22;10546;50.674;4.616;2024-03-17T18:38:32;11.60;99.90
20773;DHT22;10546;50.674;4.616;2024-03-17T18:41:06;11.40;99.90
20773;DHT22;10546;50.674;4.616;2024-03-17T18:43:35;11.40;99.90
20773;DHT22;10546;50.674;4.616;2024-03-17T18:46:09;11.50;99.90
20773;DHT22;10546;50.674;4.616;2024-03-17T18:48:36;11.60;99.90
20773;DHT22;10546;50.674;4.616;2024-03-17T18:51:02;11.60;99.90
20773;DHT22;10546;50.674;4.616;2024-03-17T18:53:28;11.60;99.90
20773;DHT22;10546;50.674;4.616;2024-03-17T18:55:58;11.50;99.90
20773;DHT22;10546;50.674;4.616;2024-03-17T18:58:25;11.50;99.90
20773;DHT22;10546;50.674;4.616;2024-03-17T19:00:57;11.40;99.90
20773;DHT22;10546;50.674;4.616;2024-03-17T19:03:24;11.40;99.90
20773;DHT22;10546;50.674;4.616;2024-03-17T19:05:57;11.60;99.90
20773;DHT22;10546;50.674;4.616;2024-03-17T19:08:24;11.50;99.90
20773;DHT22;10546;50.674;4.616;2024-03-17T19:10:54;11.60;99.90
20773;DHT22;10546;50.674;4.616;2024-03-17T19:13:21;11.40;99.90
20773;DHT22;10546;50.674;4.616;2024-03-17T19:18:31;11.50;99.90
20773;DHT22;10546;50.674;4.616;2024-03-17T19:21:05;11.50;99.90
20773;DHT22;10546;50.674;4.616;2024-03-17T19:23:33;11.60;99.90
20773;DHT22;10546;50.674;4.616;2024-03-17T19:26:04;11.50;99.90
20773;DHT22;10546;50.674;4.616;2024-03-17T19:28:30;11.50;99.90
20773;DHT22;10546;50.674;4.616;2024-03-17T19:30:57;11.50;99.90
20773;DHT22;10546;50.674;4.616;2024-03-17T19:33:26;11.30;99.90
20773;DHT22;10546;50.674;4.616;2024-03-17T19:35:53;11.30;99.90
20773;DHT22;10546;50.674;4.616;2024-03-17T19:38:19;11.40;99.90
20773;DHT22;10546;50.674;4.616;2024-03-17T19:40:57;11.40;99.90
20773;DHT22;10546;50.674;4.616;2024-03-17T19:43:26;11.50;99.90
20773;DHT22;10546;50.674;4.616;2024-03-17T19:46:07;11.50;99.90
20773;DHT22;10546;50.674;4.616;2024-03-17T19:48:56;11.60;99.90
20773;DHT22;10546;50.674;4.616;2024-03-17T19:51:22;11.60;99.90
20773;DHT22;10546;50.674;4.616;2024-03-17T19:53:56;11.60;99.90
20773;DHT22;10546;50.674;4.616;2024-03-17T19:56:25;11.60;99.90
20773;DHT22;10546;50.674;4.616;2024-03-17T19:58:52;11.60;99.90
20773;DHT22;10546;50.674;4.616;2024-03-17T20:01:19;11.60;99.90
20773;DHT22;10546;50.674;4.616;2024-03-17T20:03:45;11.60;99.90
20773;DHT22;10546;50.674;4.616;2024-03-17T20:06:19;11.60;99.90
20773;DHT22;10546;50.674;4.616;2024-03-17T20:08:46;11.60;99.90
20773;DHT22;10546;50.674;4.616;2024-03-17T20:11:12;11.70;99.90
20773;DHT22;10546;50.674;4.616;2024-03-17T20:13:38;11.70;99.90
20773;DHT22;10546;50.674;4.616;2024-03-17T20:16:03;11.70;99.90
20773;DHT22;10546;50.674;4.616;2024-03-17T20:18:29;11.70;99.90
20773;DHT22;10546;50.674;4.616;2024-03-17T20:20:58;11.60;99.90
20773;DHT22;10546;50.674;4.616;2024-03-17T20:23:23;11.60;99.90
20773;DHT22;10546;50.674;4.616;2024-03-17T20:25:49;11.60;99.90
20773;DHT22;10546;50.674;4.616;2024-03-17T20:28:15;11.60;99.90
20773;DHT22;10546;50.674;4.616;2024-03-17T20:30:41;11.70;99.90
20773;DHT22;10546;50.674;4.616;2024-03-17T20:33:07;11.70;99.90
20773;DHT22;10546;50.674;4.616;2024-03-17T20:35:35;11.80;99.90
20773;DHT22;10546;50.674;4.616;2024-03-17T20:38:01;11.80;99.90
20773;DHT22;10546;50.674;4.616;2024-03-17T20:40:27;11.90;99.90
20773;DHT22;10546;50.674;4.616;2024-03-17T20:42:56;12.00;99.90
20773;DHT22;10546;50.674;4.616;2024-03-17T20:45:22;12.00;99.90
20773;DHT22;10546;50.674;4.616;2024-03-17T20:47:53;12.10;99.90
20773;DHT22;10546;50.674;4.616;2024-03-17T20:50:21;12.00;99.90
20773;DHT22;10546;50.674;4.616;2024-03-17T20:52:47;12.00;99.90
20773;DHT22;10546;50.674;4.616;2024-03-17T20:55:14;12.20;99.90
20773;DHT22;10546;50.674;4.616;2024-03-17T20:57:45;12.10;99.90
20773;DHT22;10546;50.674;4.616;2024-03-17T21:00:18;12.20;99.90
20773;DHT22;10546;50.674;4.616;2024-03-17T21:02:53;12.20;99.90
20773;DHT22;10546;50.674;4.616;2024-03-17T21:05:26;12.30;99.90
20773;DHT22;10546;50.674;4.616;2024-03-17T21:07:53;12.30;99.90
20773;DHT22;10546;50.674;4.616;2024-03-17T21:10:19;12.30;99.90
20773;DHT22;10546;50.674;4.616;2024-03-17T21:12:46;12.40;99.90
20773;DHT22;10546;50.674;4.616;2024-03-17T21:15:13;12.40;99.90
20773;DHT22;10546;50.674;4.616;2024-03-17T21:17:42;12.30;99.90
20773;DHT22;10546;50.674;4.616;2024-03-17T21:20:09;12.40;99.90
20773;DHT22;10546;50.674;4.616;2024-03-17T21:22:39;12.30;99.90
20773;DHT22;10546;50.674;4.616;2024-03-17T21:25:06;12.30;99.90
20773;DHT22;10546;50.674;4.616;2024-03-17T21:27:32;12.40;99.90
20773;DHT22;10546;50.674;4.616;2024-03-17T21:29:58;12.40;99.90
20773;DHT22;10546;50.674;4.616;2024-03-17T21:32:24;12.40;99.90
20773;DHT22;10546;50.674;4.616;2024-03-17T21:34:53;12.40;99.90
20773;DHT22;10546;50.674;4.616;2024-03-17T21:37:24;12.40;99.90
20773;DHT22;10546;50.674;4.616;2024-03-17T21:39:50;12.40;99.90
20773;DHT22;10546;50.674;4.616;2024-03-17T21:42:16;12.40;99.90
20773;DHT22;10546;50.674;4.616;2024-03-17T21:44:42;12.40;99.90
20773;DHT22;10546;50.674;4.616;2024-03-17T21:47:08;12.40;99.90
20773;DHT22;10546;50.674;4.616;2024-03-17T21:49:35;12.50;99.90
20773;DHT22;10546;50.674;4.616;2024-03-17T21:52:01;12.50;99.90
20773;DHT22;10546;50.674;4.616;2024-03-17T21:54:27;12.50;99.90
20773;DHT22;10546;50.674;4.616;2024-03-17T21:56:53;12.40;99.90
20773;DHT22;10546;50.674;4.616;2024-03-17T21:59:19;12.40;99.90
20773;DHT22;10546;50.674;4.616;2024-03-17T22:01:45;12.50;99.90
20773;DHT22;10546;50.674;4.616;2024-03-17T22:04:11;12.30;99.90
20773;DHT22;10546;50.674;4.616;2024-03-17T22:06:41;12.40;99.90
20773;DHT22;10546;50.674;4.616;2024-03-17T22:09:11;12.40;99.90
20773;DHT22;10546;50.674;4.616;2024-03-17T22:11:37;12.50;99.90
20773;DHT22;10546;50.674;4.616;2024-03-17T22:14:03;12.50;99.90
20773;DHT22;10546;50.674;4.616;2024-03-17T22:16:29;12.50;99.90
20773;DHT22;10546;50.674;4.616;2024-03-17T22:18:55;12.50;99.90
20773;DHT22;10546;50.674;4.616;2024-03-17T22:21:23;12.50;99.90
20773;DHT22;10546;50.674;4.616;2024-03-17T22:23:49;12.40;99.90
20773;DHT22;10546;50.674;4.616;2024-03-17T22:26:14;12.40;99.90
20773;DHT22;10546;50.674;4.616;2024-03-17T22:28:40;12.50;99.90
20773;DHT22;10546;50.674;4.616;2024-03-17T22:31:06;12.40;99.90
20773;DHT22;10546;50.674;4.616;2024-03-17T22:33:33;12.40;99.90
20773;DHT22;10546;50.674;4.616;2024-03-17T22:36:03;12.50;99.90
20773;DHT22;10546;50.674;4.616;2024-03-17T22:38:33;12.50;99.90
20773;DHT22;10546;50.674;4.616;2024-03-17T22:41:01;12.40;99.90
20773;DHT22;10546;50.674;4.616;2024-03-17T22:43:32;12.50;99.90
20773;DHT22;10546;50.674;4.616;2024-03-17T22:46:00;12.50;99.90
20773;DHT22;10546;50.674;4.616;2024-03-17T22:48:27;12.50;99.90
20773;DHT22;10546;50.674;4.616;2024-03-17T22:50:56;12.50;99.90
20773;DHT22;10546;50.674;4.616;2024-03-17T22:53:22;12.50;99.90
20773;DHT22;10546;50.674;4.616;2024-03-17T22:55:49;12.50;99.90
20773;DHT22;10546;50.674;4.616;2024-03-17T22:58:19;12.50;99.90
20773;DHT22;10546;50.674;4.616;2024-03-17T23:00:46;12.40;99.90
20773;DHT22;10546;50.674;4.616;2024-03-17T23:03:29;12.30;99.90
20773;DHT22;10546;50.674;4.616;2024-03-17T23:05:58;12.30;99.90
20773;DHT22;10546;50.674;4.616;2024-03-17T23:08:30;12.20;99.90
